createdAt,value
2022-08-30T00:00:15.622Z,69.37
2022-08-30T00:02:44.928Z,70.13
2022-08-30T00:05:13.410Z,70.55
2022-08-30T00:07:41.183Z,70.37
2022-08-30T00:10:10.560Z,69.54
2022-08-30T00:12:38.447Z,69.95
2022-08-30T00:15:09.302Z,70.38
2022-08-30T00:17:40.037Z,70.45
2022-08-30T00:20:13.974Z,70.28
2022-08-30T00:22:42.511Z,69.70
2022-08-30T00:25:10.578Z,69.89
2022-08-30T00:27:38.461Z,70.06
2022-08-30T00:30:08.220Z,69.59
2022-08-30T00:32:36.163Z,69.22
2022-08-30T00:35:06.737Z,68.86
2022-08-30T00:37:35.920Z,68.50
2022-08-30T00:40:05.714Z,68.52
2022-08-30T00:42:34.061Z,69.16
2022-08-30T00:45:02.477Z,69.50
2022-08-30T00:47:30.395Z,69.94
2022-08-30T00:49:58.869Z,70.05
2022-08-30T00:52:26.768Z,70.29
2022-08-30T00:54:55.985Z,70.43
2022-08-30T00:57:23.815Z,70.77
2022-08-30T00:59:51.788Z,70.51
2022-08-30T01:02:23.496Z,71.64
2022-08-30T01:04:52.515Z,71.38
2022-08-30T01:07:20.331Z,70.65
2022-08-30T01:09:48.278Z,70.03
2022-08-30T01:12:17.698Z,69.65
2022-08-30T01:14:46.799Z,69.29
2022-08-30T01:17:17.355Z,69.43
2022-08-30T01:19:54.155Z,69.54
2022-08-30T01:22:27.761Z,69.21
2022-08-30T01:25:00.595Z,69.35
2022-08-30T01:27:30.161Z,69.24
2022-08-30T01:29:59.372Z,69.27
2022-08-30T01:32:30.028Z,69.50
2022-08-30T01:34:59.082Z,69.52
2022-08-30T01:37:31.179Z,69.74
2022-08-30T01:40:00.873Z,69.08
2022-08-30T01:42:29.363Z,69.01
2022-08-30T01:44:57.164Z,69.31
2022-08-30T01:47:25.067Z,68.92
2022-08-30T01:49:53.186Z,68.92
2022-08-30T01:52:21.385Z,70.13
2022-08-30T01:54:49.191Z,70.99
2022-08-30T01:57:22.181Z,70.97
2022-08-30T01:59:51.150Z,70.72
2022-08-30T02:02:21.811Z,70.00
2022-08-30T02:04:49.796Z,69.02
2022-08-30T02:07:17.585Z,69.04
2022-08-30T02:09:46.095Z,69.49
2022-08-30T02:12:14.468Z,70.24
2022-08-30T02:14:43.730Z,70.60
2022-08-30T02:17:13.343Z,70.22
2022-08-30T02:19:41.984Z,69.82
2022-08-30T02:22:09.816Z,69.84
2022-08-30T02:24:38.096Z,69.26
2022-08-30T02:27:06.436Z,69.25
2022-08-30T02:29:34.245Z,69.46
2022-08-30T02:32:04.395Z,69.74
2022-08-30T02:34:32.357Z,69.83
2022-08-30T02:37:00.984Z,68.59
2022-08-30T02:39:28.722Z,68.32
2022-08-30T02:41:56.707Z,68.22
2022-08-30T02:44:24.582Z,68.03
2022-08-30T02:46:52.390Z,68.14
2022-08-30T02:49:36.993Z,68.24
2022-08-30T02:52:05.992Z,68.50
2022-08-30T02:54:34.247Z,68.89
2022-08-30T02:57:04.878Z,68.82
2022-08-30T02:59:33.855Z,68.57
2022-08-30T03:02:01.601Z,69.10
2022-08-30T03:04:30.757Z,69.72
2022-08-30T03:06:59.037Z,69.73
2022-08-30T03:09:26.851Z,69.13
2022-08-30T03:11:54.979Z,68.82
2022-08-30T03:14:23.076Z,68.77
2022-08-30T03:16:51.542Z,68.56
2022-08-30T03:19:19.457Z,68.51
2022-08-30T03:21:48.595Z,69.17
2022-08-30T03:24:16.655Z,68.79
2022-08-30T03:26:46.514Z,68.14
2022-08-30T03:29:14.878Z,69.45
2022-08-30T03:31:53.236Z,69.47
2022-08-30T03:34:22.567Z,68.94
2022-08-30T03:36:52.851Z,68.52
2022-08-30T03:39:22.176Z,68.14
2022-08-30T03:41:50.188Z,68.68
2022-08-30T03:44:19.786Z,68.30
2022-08-30T03:46:47.702Z,68.86
2022-08-30T03:49:15.498Z,69.13
2022-08-30T03:51:43.799Z,69.14
2022-08-30T03:54:12.994Z,69.16
2022-08-30T03:56:40.793Z,69.49
2022-08-30T03:59:08.948Z,69.39
2022-08-30T04:01:36.772Z,70.05
2022-08-30T04:04:04.904Z,69.62
2022-08-30T04:06:33.362Z,69.33
2022-08-30T04:09:01.624Z,68.98
2022-08-30T04:11:30.825Z,69.36
2022-08-30T04:13:58.614Z,68.81
2022-08-30T04:16:28.982Z,68.28
2022-08-30T04:18:57.963Z,68.88
2022-08-30T04:21:25.854Z,68.95
2022-08-30T04:23:53.810Z,69.88
2022-08-30T04:26:21.619Z,69.67
2022-08-30T04:28:50.740Z,69.64
2022-08-30T04:31:19.037Z,69.67
2022-08-30T04:33:47.164Z,69.00
2022-08-30T04:36:17.099Z,68.70
2022-08-30T04:38:48.541Z,68.53
2022-08-30T04:41:19.330Z,68.21
2022-08-30T04:43:49.422Z,68.34
2022-08-30T04:46:20.003Z,67.84
2022-08-30T04:48:48.346Z,67.05
2022-08-30T04:51:18.298Z,66.94
2022-08-30T04:53:47.080Z,67.71
2022-08-30T04:56:17.729Z,67.76
2022-08-30T04:58:46.224Z,68.10
2022-08-30T05:01:15.168Z,67.74
2022-08-30T05:03:48.927Z,68.32
2022-08-30T05:06:17.910Z,68.55
2022-08-30T05:08:46.905Z,68.76
2022-08-30T05:11:16.046Z,68.74
2022-08-30T05:13:44.936Z,69.17
2022-08-30T05:16:17.685Z,69.32
2022-08-30T05:18:46.743Z,69.59
2022-08-30T05:21:19.139Z,68.57
2022-08-30T05:23:48.228Z,68.67
2022-08-30T05:26:18.455Z,68.45
2022-08-30T05:28:46.741Z,69.37
2022-08-30T05:31:20.129Z,68.90
2022-08-30T05:33:49.425Z,68.59
2022-08-30T05:36:21.084Z,68.83
2022-08-30T05:38:50.150Z,69.98
2022-08-30T05:41:19.763Z,70.49
2022-08-30T05:43:48.586Z,70.45
2022-08-30T05:46:20.142Z,70.16
2022-08-30T05:48:49.612Z,69.27
2022-08-30T05:51:22.124Z,69.26
2022-08-30T05:53:51.385Z,68.97
2022-08-30T05:56:21.993Z,68.04
2022-08-30T05:58:53.259Z,67.17
2022-08-30T06:01:23.419Z,67.38
2022-08-30T06:03:51.935Z,68.15
2022-08-30T06:06:21.127Z,68.85
2022-08-30T06:08:49.377Z,67.82
2022-08-30T06:11:20.758Z,68.23
2022-08-30T06:13:49.086Z,67.28
2022-08-30T06:16:20.776Z,67.18
2022-08-30T06:18:49.623Z,67.85
2022-08-30T06:21:17.946Z,68.28
2022-08-30T06:23:47.465Z,68.00
2022-08-30T06:26:15.751Z,67.84
2022-08-30T06:28:43.935Z,67.60
2022-08-30T06:31:14.663Z,66.89
2022-08-30T06:33:43.323Z,66.33
2022-08-30T06:36:14.498Z,65.46
2022-08-30T06:38:42.927Z,66.46
2022-08-30T06:41:15.323Z,65.94
2022-08-30T06:43:48.636Z,66.40
2022-08-30T06:46:19.752Z,67.19
2022-08-30T06:48:48.481Z,65.96
2022-08-30T06:51:20.261Z,65.63
2022-08-30T06:53:49.095Z,63.38
2022-08-30T06:56:19.583Z,63.06
2022-08-30T06:58:48.191Z,63.44
2022-08-30T07:01:18.766Z,63.27
2022-08-30T07:03:46.692Z,47.32
2022-08-30T07:06:15.368Z,36.21
2022-08-30T07:08:43.718Z,30.41
2022-08-30T07:11:14.571Z,24.12
2022-08-30T07:13:45.663Z,26.97
2022-08-30T07:16:15.592Z,26.12
2022-08-30T07:18:51.270Z,25.15
2022-08-30T07:21:21.588Z,24.37
2022-08-30T07:23:53.295Z,22.41
2022-08-30T07:26:24.809Z,24.39
2022-08-30T07:28:55.953Z,27.80
2022-08-30T07:31:25.762Z,22.55
2022-08-30T07:33:55.284Z,23.78
2022-08-30T07:36:24.415Z,25.68
2022-08-30T07:38:52.409Z,20.60
2022-08-30T07:41:22.213Z,21.21
2022-08-30T07:43:50.683Z,18.26
2022-08-30T07:46:21.010Z,16.57
2022-08-30T07:48:49.318Z,17.05
2022-08-30T07:51:19.880Z,18.25
2022-08-30T07:53:48.035Z,22.27
2022-08-30T07:56:16.215Z,21.17
2022-08-30T07:58:44.060Z,20.92
2022-08-30T08:01:14.368Z,26.31
2022-08-30T08:03:44.699Z,26.69
2022-08-30T08:06:15.121Z,23.88
2022-08-30T08:08:45.391Z,20.42
2022-08-30T08:11:16.394Z,21.49
2022-08-30T08:13:53.578Z,21.80
2022-08-30T08:16:24.340Z,20.18
2022-08-30T08:18:54.705Z,19.45
2022-08-30T08:21:23.587Z,19.59
2022-08-30T08:23:51.584Z,17.95
2022-08-30T08:26:19.554Z,16.87
2022-08-30T08:28:48.223Z,19.87
2022-08-30T08:31:18.017Z,20.59
2022-08-30T08:33:46.331Z,21.41
2022-08-30T08:36:16.223Z,26.17
2022-08-30T08:38:44.475Z,25.46
2022-08-30T08:41:31.437Z,21.33
2022-08-30T08:44:00.111Z,21.02
2022-08-30T08:46:33.743Z,19.11
2022-08-30T08:49:05.129Z,19.02
2022-08-30T08:51:54.976Z,19.49
2022-08-30T08:54:28.571Z,19.92
2022-08-30T08:56:56.536Z,25.02
2022-08-30T08:59:24.362Z,30.38
2022-08-30T09:01:52.237Z,35.37
2022-08-30T09:04:26.205Z,38.12
2022-08-30T09:07:00.307Z,41.39
2022-08-30T09:09:32.897Z,41.81
2022-08-30T09:12:11.248Z,40.88
2022-08-30T09:14:48.716Z,37.95
2022-08-30T09:17:19.338Z,35.86
2022-08-30T09:20:00.454Z,36.09
2022-08-30T09:22:38.394Z,32.84
2022-08-30T09:25:18.142Z,25.45
2022-08-30T09:27:48.978Z,23.52
2022-08-30T09:30:19.661Z,22.29
2022-08-30T09:32:54.222Z,23.14
2022-08-30T09:35:25.213Z,21.50
2022-08-30T09:37:56.850Z,21.97
2022-08-30T09:40:38.873Z,22.49
2022-08-30T09:43:10.359Z,19.76
2022-08-30T09:45:42.929Z,25.82
2022-08-30T09:48:29.320Z,25.91
2022-08-30T09:51:15.689Z,23.79
2022-08-30T09:54:17.124Z,23.46
2022-08-30T09:56:54.150Z,27.88
2022-08-30T09:59:38.077Z,29.47
2022-08-30T10:02:28.490Z,32.55
2022-08-30T10:05:07.464Z,36.55
2022-08-30T10:07:47.509Z,39.68
2022-08-30T10:10:22.232Z,38.77
2022-08-30T10:13:00.815Z,38.05
2022-08-30T10:15:33.279Z,37.32
2022-08-30T10:18:11.317Z,28.75
2022-08-30T10:20:57.321Z,27.98
2022-08-30T10:23:30.042Z,29.71
2022-08-30T10:26:10.364Z,32.46
2022-08-30T10:28:46.838Z,35.25
2022-08-30T10:31:30.021Z,37.81
2022-08-30T10:34:03.536Z,38.63
2022-08-30T10:36:34.763Z,38.59
2022-08-30T10:39:04.563Z,38.72
2022-08-30T10:41:38.933Z,38.44
2022-08-30T10:44:12.808Z,37.10
2022-08-30T10:46:49.255Z,35.99
2022-08-30T10:49:20.852Z,35.93
2022-08-30T10:51:55.484Z,34.56
2022-08-30T10:54:35.701Z,38.67
2022-08-30T10:57:05.409Z,35.90
2022-08-30T10:59:34.607Z,34.16
2022-08-30T11:02:29.635Z,32.82
2022-08-30T11:05:25.055Z,33.63
2022-08-30T11:08:02.882Z,33.65
2022-08-30T11:10:49.870Z,33.76
2022-08-30T11:13:23.954Z,35.81
2022-08-30T11:16:02.796Z,36.47
2022-08-30T11:18:33.904Z,35.46
2022-08-30T11:21:21.916Z,33.42
2022-08-30T11:24:04.783Z,34.31
2022-08-30T11:27:00.533Z,34.41
2022-08-30T11:29:42.687Z,33.16
2022-08-30T11:32:58.424Z,32.44
2022-08-30T11:35:47.302Z,34.16
2022-08-30T11:38:41.159Z,34.27
2022-08-30T11:41:12.615Z,34.41
2022-08-30T11:43:53.690Z,33.53
2022-08-30T11:46:37.173Z,33.45
2022-08-30T11:49:32.072Z,35.03
2022-08-30T11:52:27.242Z,33.83
2022-08-30T11:55:14.008Z,34.63
2022-08-30T11:57:51.292Z,33.25
2022-08-30T12:00:35.451Z,31.87
2022-08-30T12:03:05.910Z,32.13
2022-08-30T12:05:54.038Z,31.76
2022-08-30T12:09:02.974Z,30.98
2022-08-30T12:12:02.325Z,31.62
2022-08-30T12:14:40.904Z,29.91
2022-08-30T12:17:36.127Z,32.68
2022-08-30T12:20:13.151Z,33.42
2022-08-30T12:22:43.693Z,33.96
2022-08-30T12:25:21.480Z,34.61
2022-08-30T12:27:49.991Z,34.86
2022-08-30T12:30:28.313Z,34.94
2022-08-30T12:32:58.630Z,34.23
2022-08-30T12:35:29.234Z,35.72
2022-08-30T12:38:02.243Z,35.75
2022-08-30T12:40:34.524Z,34.20
2022-08-30T12:43:18.407Z,36.22
2022-08-30T12:45:51.326Z,35.61
2022-08-30T12:48:21.384Z,35.35
2022-08-30T12:50:53.693Z,35.71
2022-08-30T12:53:29.003Z,33.95
2022-08-30T12:56:00.543Z,35.05
2022-08-30T12:58:44.782Z,35.76
2022-08-30T13:01:19.385Z,38.05
2022-08-30T13:04:00.760Z,39.07
2022-08-30T13:06:42.517Z,37.30
2022-08-30T13:09:12.518Z,37.75
2022-08-30T13:11:41.263Z,37.48
2022-08-30T13:14:31.470Z,35.86
2022-08-30T13:17:09.640Z,35.74
2022-08-30T13:19:39.413Z,34.06
2022-08-30T13:22:25.541Z,34.89
2022-08-30T13:24:55.306Z,34.56
2022-08-30T13:27:23.626Z,35.91
2022-08-30T13:29:52.005Z,36.14
2022-08-30T13:32:22.128Z,36.29
2022-08-30T13:34:50.400Z,34.11
2022-08-30T13:40:10.608Z,36.01
2022-08-30T13:42:40.425Z,37.06
2022-08-30T13:45:40.775Z,38.03
2022-08-30T13:47:58.160Z,38.30
2022-08-30T13:50:25.923Z,38.20
2022-08-30T13:52:55.325Z,38.43
2022-08-30T13:55:23.201Z,38.52
2022-08-30T13:57:55.053Z,38.68
2022-08-30T14:00:23.748Z,40.87
2022-08-30T14:02:56.101Z,39.71
2022-08-30T14:06:04.897Z,40.32
2022-08-30T14:11:09.268Z,41.83
2022-08-30T14:13:37.421Z,42.53
2022-08-30T14:18:56.549Z,40.82
2022-08-30T14:21:26.212Z,39.71
2022-08-30T14:23:55.977Z,39.00
2022-08-30T14:26:33.012Z,38.49
2022-08-30T14:29:01.799Z,37.87
2022-08-30T14:31:32.676Z,38.17
2022-08-30T14:34:04.119Z,36.88
2022-08-30T14:36:35.559Z,36.71
2022-08-30T14:39:08.266Z,35.73
2022-08-30T14:41:43.664Z,36.01
2022-08-30T14:44:12.288Z,38.78
2022-08-30T14:46:40.398Z,39.82
2022-08-30T14:49:10.344Z,41.13
2022-08-30T14:51:41.490Z,41.94
2022-08-30T14:54:10.570Z,42.20
2022-08-30T14:56:39.876Z,41.06
2022-08-30T14:59:07.984Z,41.48
2022-08-30T15:01:37.259Z,42.99
2022-08-30T15:04:07.255Z,41.54
2022-08-30T15:06:36.405Z,43.33
2022-08-30T15:09:06.472Z,42.88
2022-08-30T15:11:34.308Z,41.77
2022-08-30T15:14:02.422Z,42.01
2022-08-30T15:16:32.960Z,40.52
2022-08-30T15:19:02.277Z,40.14
2022-08-30T15:21:32.757Z,36.84
2022-08-30T15:24:02.202Z,38.62
2022-08-30T15:26:31.866Z,37.41
2022-08-30T15:29:00.249Z,37.13
2022-08-30T15:31:29.497Z,36.44
2022-08-30T15:33:58.817Z,37.06
2022-08-30T15:36:27.250Z,37.17
2022-08-30T15:38:56.741Z,37.11
2022-08-30T15:41:24.677Z,35.90
2022-08-30T15:43:55.115Z,36.35
2022-08-30T15:46:29.595Z,36.24
2022-08-30T15:49:02.409Z,35.64
2022-08-30T15:51:41.178Z,35.49
2022-08-30T15:54:11.691Z,36.38
2022-08-30T15:56:40.471Z,36.72
2022-08-30T15:59:15.100Z,36.52
2022-08-30T16:01:43.178Z,36.71
2022-08-30T16:04:11.672Z,36.86
2022-08-30T16:06:40.506Z,36.66
2022-08-30T16:09:10.646Z,38.22
2022-08-30T16:11:39.642Z,35.91
2022-08-30T16:14:08.336Z,36.69
2022-08-30T16:16:38.424Z,38.49
2022-08-30T16:19:09.698Z,39.36
2022-08-30T16:21:38.525Z,39.40
2022-08-30T16:24:10.652Z,40.44
2022-08-30T16:26:42.311Z,40.47
2022-08-30T16:29:12.343Z,40.83
2022-08-30T16:32:07.027Z,40.23
2022-08-30T16:34:35.843Z,41.16
2022-08-30T16:37:05.160Z,41.16
2022-08-30T16:39:33.341Z,41.25
2022-08-30T16:42:03.062Z,40.47
2022-08-30T16:44:31.234Z,40.21
2022-08-30T16:46:59.101Z,41.03
2022-08-30T16:49:28.305Z,41.78
2022-08-30T16:51:56.186Z,40.94
2022-08-30T16:54:24.750Z,41.22
2022-08-30T16:56:52.756Z,41.99
2022-08-30T16:59:20.619Z,41.92
2022-08-30T17:01:48.882Z,42.45
2022-08-30T17:04:19.323Z,42.61
2022-08-30T17:06:49.756Z,42.60
2022-08-30T17:09:18.645Z,42.82
2022-08-30T17:11:47.400Z,41.18
2022-08-30T17:14:17.834Z,42.25
2022-08-30T17:16:50.893Z,43.35
2022-08-30T17:22:09.689Z,45.47
2022-08-30T17:24:38.229Z,46.46
2022-08-30T17:27:06.487Z,47.09
2022-08-30T17:29:34.786Z,48.51
2022-08-30T17:32:04.407Z,47.79
2022-08-30T17:34:32.779Z,49.36
2022-08-30T17:37:00.655Z,50.71
2022-08-30T17:39:30.592Z,50.87
2022-08-30T17:41:59.501Z,52.04
2022-08-30T17:44:29.683Z,52.53
2022-08-30T17:46:59.660Z,53.23
2022-08-30T17:49:28.813Z,53.61
2022-08-30T17:51:58.011Z,54.00
2022-08-30T17:54:26.743Z,54.58
2022-08-30T17:56:57.120Z,55.00
2022-08-30T17:59:26.017Z,54.89
2022-08-30T18:01:55.402Z,54.88
2022-08-30T18:04:24.960Z,55.78
2022-08-30T18:06:53.192Z,55.76
2022-08-30T18:09:21.168Z,54.54
2022-08-30T18:11:49.734Z,55.02
2022-08-30T18:14:19.568Z,54.78
2022-08-30T18:16:53.200Z,56.07
2022-08-30T18:19:21.671Z,56.66
2022-08-30T18:21:49.510Z,56.89
2022-08-30T18:24:17.991Z,57.46
2022-08-30T18:26:46.588Z,58.01
2022-08-30T18:29:14.630Z,57.99
2022-08-30T18:31:58.954Z,58.22
2022-08-30T18:34:26.989Z,57.93
2022-08-30T18:36:54.887Z,58.40
2022-08-30T18:39:23.022Z,58.23
2022-08-30T18:41:54.621Z,58.52
2022-08-30T18:44:29.050Z,59.27
2022-08-30T18:47:00.865Z,59.73
2022-08-30T18:49:32.119Z,59.40
2022-08-30T18:52:00.635Z,59.36
2022-08-30T18:54:28.972Z,59.74
2022-08-30T18:56:56.836Z,59.71
2022-08-30T18:59:31.438Z,59.53
2022-08-30T19:02:06.171Z,59.33
2022-08-30T19:04:35.582Z,58.83
2022-08-30T19:07:05.248Z,58.35
2022-08-30T19:09:33.121Z,58.63
2022-08-30T19:12:01.277Z,59.08
2022-08-30T19:14:29.296Z,58.84
2022-08-30T19:17:02.053Z,58.52
2022-08-30T19:19:34.831Z,58.31
2022-08-30T19:22:03.389Z,58.26
2022-08-30T19:24:31.303Z,57.70
2022-08-30T19:27:00.208Z,57.62
2022-08-30T19:29:28.362Z,57.20
2022-08-30T19:31:56.412Z,57.29
2022-08-30T19:34:24.284Z,57.45
2022-08-30T19:36:53.516Z,57.43
2022-08-30T19:39:21.371Z,56.93
2022-08-30T19:41:50.281Z,57.27
2022-08-30T19:44:18.123Z,57.80
2022-08-30T19:46:46.020Z,57.86
2022-08-30T19:49:14.087Z,58.19
2022-08-30T19:51:46.497Z,58.19
2022-08-30T19:54:16.381Z,59.00
2022-08-30T19:56:45.254Z,59.47
2022-08-30T19:59:13.120Z,59.48
2022-08-30T20:01:41.046Z,59.36
2022-08-30T20:04:08.989Z,59.42
2022-08-30T20:06:36.965Z,59.55
2022-08-30T20:09:05.621Z,60.11
2022-08-30T20:11:42.210Z,60.10
2022-08-30T20:14:13.436Z,60.40
2022-08-30T20:16:41.681Z,60.75
2022-08-30T20:19:11.762Z,60.97
2022-08-30T20:21:39.817Z,60.88
2022-08-30T20:24:10.047Z,61.51
2022-08-30T20:24:25.026Z,43.51
2022-08-30T20:26:39.836Z,61.86
2022-08-30T20:29:08.867Z,62.48
2022-08-30T20:31:36.789Z,62.49
2022-08-30T20:34:05.518Z,62.49
2022-08-30T20:36:33.752Z,62.43
2022-08-30T20:39:02.154Z,62.50
2022-08-30T20:41:30.677Z,63.34
2022-08-30T20:44:01.854Z,62.80
2022-08-30T20:46:34.080Z,63.39
2022-08-30T20:49:03.247Z,63.96
2022-08-30T20:51:31.109Z,64.89
2022-08-30T20:54:03.276Z,63.94
2022-08-30T20:56:31.766Z,63.88
2022-08-30T20:59:02.546Z,65.20
2022-08-30T21:01:31.761Z,64.69
2022-08-30T21:04:00.410Z,64.31
2022-08-30T21:06:28.427Z,64.44
2022-08-30T21:08:56.224Z,64.01
2022-08-30T21:11:24.073Z,64.44
2022-08-30T21:13:51.814Z,64.93
2022-08-30T21:16:22.065Z,64.64
2022-08-30T21:18:50.381Z,64.87
2022-08-30T21:21:22.650Z,64.63
2022-08-30T21:23:51.343Z,65.11
2022-08-30T21:26:20.423Z,65.30
2022-08-30T21:28:48.590Z,65.62
2022-08-30T21:31:18.981Z,66.33
2022-08-30T21:33:48.974Z,66.44
2022-08-30T21:36:35.697Z,66.20
2022-08-30T21:39:03.974Z,66.70
2022-08-30T21:41:32.427Z,66.93
2022-08-30T21:44:02.040Z,67.48
2022-08-30T21:46:34.073Z,67.64
2022-08-30T21:49:06.623Z,67.55
2022-08-30T21:51:36.791Z,67.43
2022-08-30T21:54:07.214Z,67.21
2022-08-30T21:56:35.895Z,67.36
2022-08-30T21:59:04.244Z,67.01
2022-08-30T22:01:32.490Z,67.05
2022-08-30T22:04:05.128Z,66.92
2022-08-30T22:06:36.071Z,66.74
2022-08-30T22:09:07.534Z,67.46
2022-08-30T22:11:36.423Z,67.10
2022-08-30T22:14:05.035Z,67.18
2022-08-30T22:16:32.889Z,67.06
2022-08-30T22:19:01.925Z,67.43
2022-08-30T22:21:33.577Z,67.53
2022-08-30T22:24:01.943Z,67.51
2022-08-30T22:26:29.760Z,67.45
2022-08-30T22:28:57.509Z,67.07
2022-08-30T22:31:26.449Z,68.03
2022-08-30T22:33:55.834Z,68.34
2022-08-30T22:36:32.839Z,68.17
2022-08-30T22:39:03.520Z,68.05
2022-08-30T22:41:34.346Z,67.67
2022-08-30T22:44:02.343Z,67.75
2022-08-30T22:46:34.437Z,68.04
2022-08-30T22:49:03.163Z,69.12
2022-08-30T22:51:31.330Z,68.48
2022-08-30T22:53:59.101Z,68.14
2022-08-30T22:56:29.156Z,68.33
2022-08-30T22:58:57.395Z,68.29
2022-08-30T23:01:27.775Z,68.05
2022-08-30T23:03:56.414Z,67.81
2022-08-30T23:06:24.666Z,67.63
2022-08-30T23:08:52.493Z,67.51
2022-08-30T23:11:20.772Z,67.50
2022-08-30T23:13:51.198Z,67.40
2022-08-30T23:16:20.023Z,67.78
2022-08-30T23:18:48.943Z,67.81
2022-08-30T23:21:19.522Z,67.46
2022-08-30T23:24:05.391Z,67.18
2022-08-30T23:26:51.101Z,67.42
2022-08-30T23:29:37.907Z,67.31
2022-08-30T23:32:23.856Z,67.18
2022-08-30T23:35:09.476Z,67.15
2022-08-30T23:37:55.157Z,67.36
2022-08-30T23:40:41.930Z,67.52
2022-08-30T23:43:28.215Z,67.75
2022-08-30T23:46:18.921Z,68.52
2022-08-30T23:49:04.650Z,68.04
2022-08-30T23:51:49.985Z,67.59
2022-08-30T23:54:35.571Z,69.21
2022-08-30T23:57:20.892Z,68.41
